createdAt,value
2023-01-10T00:00:15.033Z,1.07
2023-01-10T00:02:43.355Z,1.20
2023-01-10T00:05:12.872Z,1.17
2023-01-10T00:07:41.029Z,0.93
2023-01-10T00:10:09.796Z,1.60
2023-01-10T00:12:56.073Z,1.27
2023-01-10T00:15:24.502Z,1.10
2023-01-10T00:17:52.684Z,1.13
2023-01-10T00:20:22.244Z,1.10
2023-01-10T00:22:51.024Z,1.03
2023-01-10T00:25:21.083Z,1.20
2023-01-10T00:27:53.831Z,1.07
2023-01-10T00:30:22.267Z,1.00
2023-01-10T00:32:50.463Z,1.20
2023-01-10T00:35:18.799Z,1.47
2023-01-10T00:37:48.299Z,1.00
2023-01-10T00:40:16.462Z,1.20
2023-01-10T00:43:02.382Z,1.27
2023-01-10T00:45:30.733Z,1.33
2023-01-10T00:47:58.977Z,1.90
2023-01-10T00:50:27.133Z,1.20
2023-01-10T00:52:56.705Z,1.03
2023-01-10T00:55:24.935Z,0.97
2023-01-10T00:57:53.770Z,1.17
2023-01-10T01:00:22.026Z,1.00
2023-01-10T01:02:51.687Z,1.00
2023-01-10T01:05:20.154Z,1.10
2023-01-10T01:07:49.337Z,1.10
2023-01-10T01:10:28.612Z,0.93
2023-01-10T01:12:57.619Z,1.30
2023-01-10T01:15:26.351Z,1.20
2023-01-10T01:17:54.781Z,1.30
2023-01-10T01:20:22.974Z,0.97
2023-01-10T01:22:51.215Z,1.03
2023-01-10T01:25:20.864Z,1.20
2023-01-10T01:27:49.057Z,1.13
2023-01-10T01:30:17.514Z,0.90
2023-01-10T01:32:45.709Z,1.20
2023-01-10T01:35:15.607Z,1.17
2023-01-10T01:37:44.116Z,0.90
2023-01-10T01:40:14.106Z,1.20
2023-01-10T01:42:44.117Z,0.90
2023-01-10T01:45:30.838Z,0.70
2023-01-10T01:48:00.768Z,1.00
2023-01-10T01:50:31.185Z,1.00
2023-01-10T01:53:00.095Z,0.80
2023-01-10T01:55:29.253Z,0.97
2023-01-10T01:58:00.766Z,1.10
2023-01-10T02:00:29.044Z,1.40
2023-01-10T02:03:02.914Z,0.90
2023-01-10T02:05:32.173Z,1.10
2023-01-10T02:08:02.123Z,1.00
2023-01-10T02:10:33.687Z,0.90
2023-01-10T02:13:05.524Z,1.17
2023-01-10T02:15:33.919Z,1.43
2023-01-10T02:18:03.773Z,0.80
2023-01-10T02:20:36.531Z,1.10
2023-01-10T02:23:20.213Z,0.97
2023-01-10T02:26:16.913Z,1.10
2023-01-10T02:29:10.242Z,1.20
2023-01-10T02:31:43.931Z,0.93
2023-01-10T02:34:15.038Z,1.17
2023-01-10T02:36:47.942Z,1.13
2023-01-10T02:39:19.341Z,0.90
2023-01-10T02:41:50.197Z,1.20
2023-01-10T02:44:21.180Z,1.07
2023-01-10T02:46:50.445Z,1.03
2023-01-10T02:49:20.331Z,1.20
2023-01-10T02:51:48.579Z,0.90
2023-01-10T02:54:19.481Z,0.90
2023-01-10T02:56:57.104Z,1.07
2023-01-10T02:59:40.206Z,0.90
2023-01-10T03:02:14.015Z,1.00
2023-01-10T03:04:49.921Z,0.90
2023-01-10T03:07:21.979Z,0.87
2023-01-10T03:09:54.586Z,0.97
2023-01-10T03:12:24.112Z,1.00
2023-01-10T03:14:53.238Z,0.90
2023-01-10T03:17:22.197Z,1.10
2023-01-10T03:19:52.887Z,1.10
2023-01-10T03:22:21.106Z,1.03
2023-01-10T03:24:50.614Z,0.80
2023-01-10T03:27:21.946Z,1.27
2023-01-10T03:29:52.900Z,1.20
2023-01-10T03:32:23.143Z,1.00
2023-01-10T03:34:53.069Z,0.80
2023-01-10T03:37:23.061Z,1.10
2023-01-10T03:39:55.806Z,1.10
2023-01-10T03:42:26.519Z,1.00
2023-01-10T03:44:57.593Z,1.10
2023-01-10T03:47:29.882Z,1.00
2023-01-10T03:50:01.485Z,1.20
2023-01-10T03:52:30.686Z,0.97
2023-01-10T03:55:00.561Z,0.90
2023-01-10T03:57:28.838Z,1.03
2023-01-10T03:59:57.970Z,1.10
2023-01-10T04:02:26.814Z,1.37
2023-01-10T04:04:55.050Z,0.90
2023-01-10T04:07:24.878Z,1.00
2023-01-10T04:09:53.070Z,1.10
2023-01-10T04:12:21.312Z,1.40
2023-01-10T04:14:49.565Z,1.50
2023-01-10T04:17:18.683Z,1.00
2023-01-10T04:19:47.073Z,1.23
2023-01-10T04:22:15.287Z,1.20
2023-01-10T04:24:47.061Z,1.20
2023-01-10T04:27:15.268Z,1.20
2023-01-10T04:29:43.451Z,1.10
2023-01-10T04:32:11.678Z,1.30
2023-01-10T04:34:40.035Z,1.10
2023-01-10T04:37:08.277Z,1.00
2023-01-10T04:39:36.459Z,1.20
2023-01-10T04:42:06.065Z,1.53
2023-01-10T04:44:34.293Z,1.40
2023-01-10T04:47:02.474Z,1.40
2023-01-10T04:49:31.091Z,1.50
2023-01-10T04:51:59.400Z,0.90
2023-01-10T04:54:27.703Z,1.20
2023-01-10T04:56:55.870Z,1.23
2023-01-10T04:59:25.369Z,1.33
2023-01-10T05:01:53.602Z,1.07
2023-01-10T05:04:22.109Z,1.10
2023-01-10T05:06:50.382Z,1.10
2023-01-10T05:09:18.968Z,1.23
2023-01-10T05:11:47.159Z,1.30
2023-01-10T05:14:15.387Z,1.83
2023-01-10T05:16:44.985Z,2.13
2023-01-10T05:19:13.234Z,1.97
2023-01-10T05:21:41.399Z,2.10
2023-01-10T05:24:10.574Z,1.47
2023-01-10T05:26:38.786Z,1.80
2023-01-10T05:29:07.030Z,1.90
2023-01-10T05:31:35.318Z,1.73
2023-01-10T05:34:04.865Z,1.30
2023-01-10T05:36:33.126Z,1.47
2023-01-10T05:39:01.320Z,1.50
2023-01-10T05:41:29.514Z,1.50
2023-01-10T05:43:57.725Z,1.40
2023-01-10T05:46:26.018Z,1.50
2023-01-10T05:48:54.510Z,1.67
2023-01-10T05:51:24.042Z,1.00
2023-01-10T05:53:52.231Z,1.50
2023-01-10T05:56:20.517Z,1.50
2023-01-10T05:58:51.446Z,1.33
2023-01-10T06:01:22.778Z,1.20
2023-01-10T06:03:51.017Z,1.47
2023-01-10T06:06:19.157Z,1.30
2023-01-10T06:08:48.777Z,0.97
2023-01-10T06:11:16.943Z,1.17
2023-01-10T06:13:45.089Z,1.83
2023-01-10T06:16:13.293Z,1.60
2023-01-10T06:18:41.500Z,1.30
2023-01-10T06:21:09.698Z,1.30
2023-01-10T06:23:37.919Z,1.90
2023-01-10T06:26:07.599Z,1.20
2023-01-10T06:28:36.167Z,1.53
2023-01-10T06:31:04.415Z,1.40
2023-01-10T06:33:32.722Z,1.13
2023-01-10T06:36:01.019Z,1.20
2023-01-10T06:38:29.431Z,1.60
2023-01-10T06:40:57.623Z,1.63
2023-01-10T06:43:27.251Z,1.70
2023-01-10T06:45:55.599Z,1.40
2023-01-10T06:48:23.844Z,1.20
2023-01-10T06:50:52.025Z,1.20
2023-01-10T06:53:20.204Z,1.63
2023-01-10T06:55:48.365Z,1.30
2023-01-10T06:58:18.449Z,1.73
2023-01-10T07:00:48.006Z,1.50
2023-01-10T07:03:16.164Z,1.67
2023-01-10T07:05:44.379Z,1.30
2023-01-10T07:08:12.685Z,1.53
2023-01-10T07:10:42.375Z,1.47
2023-01-10T07:13:10.766Z,1.50
2023-01-10T07:15:39.027Z,1.30
2023-01-10T07:18:10.275Z,1.63
2023-01-10T07:20:40.105Z,1.70
2023-01-10T07:23:08.299Z,1.93
2023-01-10T07:25:36.540Z,1.20
2023-01-10T07:28:06.395Z,1.33
2023-01-10T07:30:34.598Z,1.37
2023-01-10T07:33:03.956Z,1.60
2023-01-10T07:35:33.587Z,1.33
2023-01-10T07:38:03.176Z,1.40
2023-01-10T07:40:31.599Z,1.60
2023-01-10T07:43:00.128Z,1.30
2023-01-10T07:45:28.789Z,1.50
2023-01-10T07:47:59.947Z,1.53
2023-01-10T07:50:28.534Z,1.70
2023-01-10T07:52:58.314Z,1.57
2023-01-10T07:55:27.317Z,2.07
2023-01-10T07:57:55.577Z,1.70
2023-01-10T08:00:23.881Z,1.70
2023-01-10T08:02:54.986Z,1.40
2023-01-10T08:05:23.348Z,1.70
2023-01-10T08:07:52.377Z,1.60
2023-01-10T08:10:21.914Z,1.90
2023-01-10T08:12:51.379Z,1.77
2023-01-10T08:15:19.711Z,1.90
2023-01-10T08:17:48.201Z,1.80
2023-01-10T08:20:16.586Z,1.83
2023-01-10T08:22:44.789Z,1.87
2023-01-10T08:25:13.255Z,2.13
2023-01-10T08:27:42.794Z,2.07
2023-01-10T08:30:11.800Z,1.80
2023-01-10T08:32:40.349Z,2.00
2023-01-10T08:35:08.749Z,2.13
2023-01-10T08:37:36.979Z,2.00
2023-01-10T08:40:05.567Z,2.07
2023-01-10T08:42:34.482Z,1.77
2023-01-10T08:45:04.347Z,1.67
2023-01-10T08:47:32.497Z,1.70
2023-01-10T08:50:00.667Z,1.60
2023-01-10T08:52:28.939Z,1.83
2023-01-10T08:54:57.096Z,1.50
2023-01-10T08:57:25.299Z,1.30
2023-01-10T08:59:53.483Z,1.43
2023-01-10T09:02:23.135Z,1.30
2023-01-10T09:04:51.346Z,1.90
2023-01-10T09:07:19.566Z,1.80
2023-01-10T09:09:47.747Z,1.30
2023-01-10T09:12:33.521Z,2.37
2023-01-10T09:15:01.774Z,1.90
2023-01-10T09:17:31.307Z,1.43
2023-01-10T09:19:59.474Z,1.27
2023-01-10T09:22:27.758Z,1.70
2023-01-10T09:24:55.920Z,1.47
2023-01-10T09:27:24.117Z,2.23
2023-01-10T09:29:52.355Z,1.90
2023-01-10T09:32:20.880Z,2.30
2023-01-10T09:34:50.473Z,2.17
2023-01-10T09:37:18.665Z,1.70
2023-01-10T09:39:47.024Z,1.93
2023-01-10T09:42:29.629Z,1.83
2023-01-10T09:45:02.757Z,1.60
2023-01-10T09:47:33.731Z,1.77
2023-01-10T09:50:12.363Z,1.70
2023-01-10T09:52:43.073Z,1.90
2023-01-10T09:55:19.599Z,1.83
2023-01-10T09:57:47.892Z,2.17
2023-01-10T10:00:21.568Z,1.73
2023-01-10T10:02:52.461Z,1.40
2023-01-10T10:05:24.438Z,2.30
2023-01-10T10:07:54.246Z,1.80
2023-01-10T10:10:24.664Z,2.17
2023-01-10T10:12:57.264Z,2.00
2023-01-10T10:15:29.361Z,1.80
2023-01-10T10:18:05.119Z,1.60
2023-01-10T10:20:41.822Z,1.40
2023-01-10T10:23:14.881Z,1.73
2023-01-10T10:25:47.756Z,1.60
2023-01-10T10:28:31.541Z,2.40
2023-01-10T10:31:05.104Z,1.90
2023-01-10T10:33:41.134Z,1.77
2023-01-10T10:36:13.554Z,1.70
2023-01-10T10:38:45.153Z,1.63
2023-01-10T10:41:17.263Z,2.50
2023-01-10T10:43:47.909Z,2.07
2023-01-10T10:46:20.123Z,1.60
2023-01-10T10:48:51.350Z,1.47
2023-01-10T10:51:25.212Z,1.20
2023-01-10T10:53:53.667Z,1.50
2023-01-10T10:56:24.348Z,1.73
2023-01-10T10:58:55.458Z,1.70
2023-01-10T11:01:26.528Z,1.77
2023-01-10T11:03:57.638Z,2.77
2023-01-10T11:06:28.672Z,2.10
2023-01-10T11:08:57.887Z,1.70
2023-01-10T11:11:27.572Z,1.40
2023-01-10T11:13:56.787Z,1.20
2023-01-10T11:16:29.309Z,1.30
2023-01-10T11:19:18.432Z,1.63
2023-01-10T11:21:55.014Z,1.53
2023-01-10T11:24:33.820Z,1.33
2023-01-10T11:27:03.596Z,1.57
2023-01-10T11:29:36.519Z,1.30
2023-01-10T11:32:09.951Z,1.53
2023-01-10T11:34:38.554Z,2.73
2023-01-10T11:37:19.999Z,2.20
2023-01-10T11:39:48.165Z,1.70
2023-01-10T11:42:29.734Z,1.97
2023-01-10T11:44:58.229Z,1.63
2023-01-10T11:47:26.520Z,1.77
2023-01-10T11:49:55.015Z,2.03
2023-01-10T11:52:26.379Z,1.70
2023-01-10T11:54:58.426Z,1.60
2023-01-10T11:57:28.334Z,1.40
2023-01-10T11:59:57.988Z,1.70
2023-01-10T12:02:27.975Z,1.57
2023-01-10T12:04:56.884Z,2.00
2023-01-10T12:07:26.777Z,1.70
2023-01-10T12:09:58.807Z,2.30
2023-01-10T12:12:27.900Z,2.07
2023-01-10T12:14:57.040Z,2.23
2023-01-10T12:17:26.922Z,1.87
2023-01-10T12:19:58.343Z,1.87
2023-01-10T12:22:31.742Z,1.40
2023-01-10T12:25:01.363Z,1.43
2023-01-10T12:27:30.121Z,1.70
2023-01-10T12:30:02.914Z,1.60
2023-01-10T12:32:35.440Z,1.60
2023-01-10T12:35:05.434Z,1.80
2023-01-10T12:37:37.481Z,1.50
2023-01-10T12:40:07.981Z,1.37
2023-01-10T12:43:02.190Z,2.03
2023-01-10T12:45:32.970Z,1.40
2023-01-10T12:48:04.277Z,1.50
2023-01-10T12:50:35.357Z,1.63
2023-01-10T12:53:08.609Z,1.40
2023-01-10T12:55:38.235Z,1.50
2023-01-10T12:58:07.105Z,1.50
2023-01-10T13:00:47.454Z,1.40
2023-01-10T13:03:18.191Z,1.20
2023-01-10T13:05:49.416Z,1.47
2023-01-10T13:08:20.049Z,1.90
2023-01-10T13:10:50.543Z,1.93
2023-01-10T13:13:22.614Z,1.73
2023-01-10T13:15:54.188Z,1.93
2023-01-10T13:18:26.651Z,2.10
2023-01-10T13:21:04.514Z,1.30
2023-01-10T13:23:35.254Z,1.67
2023-01-10T13:26:05.455Z,1.77
2023-01-10T13:28:35.740Z,1.70
2023-01-10T13:31:05.821Z,1.30
2023-01-10T13:33:36.101Z,1.30
2023-01-10T13:36:12.358Z,1.50
2023-01-10T13:38:53.179Z,1.63
2023-01-10T13:41:39.787Z,1.40
2023-01-10T13:44:09.559Z,1.80
2023-01-10T13:46:48.750Z,1.37
2023-01-10T13:49:43.773Z,1.30
2023-01-10T13:52:39.088Z,1.60
2023-01-10T13:55:25.685Z,1.60
2023-01-10T13:57:54.567Z,1.47
2023-01-10T14:00:42.014Z,1.37
2023-01-10T14:03:10.223Z,1.43
2023-01-10T14:05:38.448Z,1.93
2023-01-10T14:08:18.024Z,1.70
2023-01-10T14:10:47.590Z,1.50
2023-01-10T14:13:22.987Z,1.60
2023-01-10T14:15:51.521Z,1.27
2023-01-10T14:18:22.857Z,1.40
2023-01-10T14:20:57.701Z,1.27
2023-01-10T14:23:30.207Z,1.30
2023-01-10T14:25:59.903Z,1.33
2023-01-10T14:28:29.264Z,1.40
2023-01-10T14:31:01.858Z,1.30
2023-01-10T14:33:30.241Z,1.30
2023-01-10T14:36:01.107Z,1.13
2023-01-10T14:38:30.133Z,1.20
2023-01-10T14:41:02.472Z,1.10
2023-01-10T14:43:33.528Z,1.40
2023-01-10T14:46:04.793Z,1.27
2023-01-10T14:48:33.646Z,1.60
2023-01-10T14:51:11.502Z,2.47
2023-01-10T14:53:39.780Z,1.87
2023-01-10T14:56:20.484Z,1.27
2023-01-10T14:58:48.714Z,1.20
2023-01-10T15:01:20.604Z,1.30
2023-01-10T15:03:49.107Z,1.50
2023-01-10T15:06:17.324Z,1.10
2023-01-10T15:08:45.563Z,1.50
2023-01-10T15:11:15.097Z,1.10
2023-01-10T15:13:50.228Z,0.80
2023-01-10T15:18:48.668Z,1.30
2023-01-10T15:21:20.677Z,1.30
2023-01-10T15:23:49.969Z,1.23
2023-01-10T15:26:19.492Z,1.20
2023-01-10T15:29:01.515Z,1.13
2023-01-10T15:31:30.713Z,1.27
2023-01-10T15:34:00.007Z,1.20
2023-01-10T15:36:29.761Z,1.13
2023-01-10T15:38:58.016Z,1.10
2023-01-10T15:41:26.263Z,1.40
2023-01-10T15:43:55.872Z,1.10
2023-01-10T15:46:24.631Z,0.90
2023-01-10T15:48:56.329Z,1.47
2023-01-10T15:51:28.497Z,1.63
2023-01-10T15:54:03.117Z,1.10
2023-01-10T15:56:33.256Z,1.23
2023-01-10T15:59:03.967Z,1.50
2023-01-10T16:01:32.877Z,1.43
2023-01-10T16:04:02.481Z,1.57
2023-01-10T16:06:32.017Z,1.80
2023-01-10T16:09:01.440Z,1.20
2023-01-10T16:11:59.843Z,1.50
2023-01-10T16:14:29.362Z,1.40
2023-01-10T16:16:57.540Z,1.33
2023-01-10T16:19:25.745Z,1.17
2023-01-10T16:21:58.241Z,1.63
2023-01-10T16:24:28.560Z,1.30
2023-01-10T16:26:57.880Z,1.10
2023-01-10T16:29:26.186Z,1.40
2023-01-10T16:31:56.244Z,1.50
2023-01-10T16:34:25.746Z,1.40
2023-01-10T16:36:54.020Z,1.80
2023-01-10T16:39:23.028Z,1.87
2023-01-10T16:42:09.086Z,1.20
2023-01-10T16:44:37.337Z,1.30
2023-01-10T16:47:07.381Z,1.43
2023-01-10T16:49:35.776Z,1.53
2023-01-10T16:52:04.086Z,1.37
2023-01-10T16:54:35.310Z,1.63
2023-01-10T16:57:03.484Z,1.23
2023-01-10T16:59:31.715Z,1.33
2023-01-10T17:02:00.220Z,1.30
2023-01-10T17:04:32.642Z,2.20
2023-01-10T17:07:00.900Z,1.40
2023-01-10T17:09:30.213Z,2.07
2023-01-10T17:12:02.325Z,2.47
2023-01-10T17:14:31.018Z,2.40
2023-01-10T17:16:59.239Z,2.33
2023-01-10T17:19:27.433Z,10.67
2023-01-10T17:21:56.958Z,55.97
2023-01-10T17:24:25.145Z,45.33
2023-01-10T17:26:53.349Z,15.30
2023-01-10T17:29:23.335Z,11.40
2023-01-10T17:31:51.791Z,10.63
2023-01-10T17:34:20.151Z,13.20
2023-01-10T17:36:48.336Z,6.30
2023-01-10T17:39:17.941Z,4.60
2023-01-10T17:41:46.235Z,2.53
2023-01-10T17:44:14.427Z,1.90
2023-01-10T17:46:42.665Z,1.67
2023-01-10T17:49:13.222Z,1.90
2023-01-10T17:51:41.641Z,1.53
2023-01-10T17:54:09.911Z,2.40
2023-01-10T17:56:39.405Z,2.20
2023-01-10T17:59:07.605Z,2.07
2023-01-10T18:01:35.935Z,2.20
2023-01-10T18:04:04.257Z,1.70
2023-01-10T18:06:32.419Z,2.20
2023-01-10T18:09:01.820Z,1.50
2023-01-10T18:11:31.654Z,4.30
2023-01-10T18:14:21.275Z,1.90
2023-01-10T18:16:49.575Z,3.67
2023-01-10T18:19:17.982Z,4.87
2023-01-10T18:21:46.241Z,8.10
2023-01-10T18:24:14.463Z,12.90
2023-01-10T18:26:42.859Z,12.23
2023-01-10T18:29:12.515Z,6.33
2023-01-10T18:31:41.441Z,6.20
2023-01-10T18:34:09.880Z,4.43
2023-01-10T18:36:40.065Z,3.83
2023-01-10T18:39:08.518Z,1.70
2023-01-10T18:41:37.011Z,1.50
2023-01-10T18:44:05.199Z,1.67
2023-01-10T18:46:34.861Z,3.33
2023-01-10T18:49:03.048Z,2.67
2023-01-10T18:51:31.206Z,4.27
2023-01-10T18:53:59.457Z,4.50
2023-01-10T18:56:27.766Z,4.97
2023-01-10T18:58:58.650Z,4.70
2023-01-10T19:01:27.102Z,3.40
2023-01-10T19:03:57.012Z,3.87
2023-01-10T19:06:25.313Z,4.97
2023-01-10T19:08:54.275Z,6.00
2023-01-10T19:11:22.705Z,5.00
2023-01-10T19:13:52.036Z,4.00
2023-01-10T19:16:21.359Z,3.10
2023-01-10T19:18:50.599Z,4.87
2023-01-10T19:21:20.232Z,2.00
2023-01-10T19:23:50.570Z,3.50
2023-01-10T19:26:19.491Z,2.40
2023-01-10T19:28:48.091Z,4.63
2023-01-10T19:31:17.046Z,4.40
2023-01-10T19:33:46.115Z,5.07
2023-01-10T19:36:14.327Z,8.37
2023-01-10T19:38:43.898Z,6.40
2023-01-10T19:41:13.830Z,4.20
2023-01-10T19:43:42.117Z,8.80
2023-01-10T19:46:10.537Z,4.03
2023-01-10T19:48:38.774Z,5.47
2023-01-10T19:51:07.679Z,4.93
2023-01-10T19:53:36.538Z,5.40
2023-01-10T19:56:09.698Z,5.80
2023-01-10T19:58:38.787Z,7.37
2023-01-10T20:01:10.614Z,6.73
2023-01-10T20:03:40.868Z,5.30
2023-01-10T20:06:10.068Z,5.70
2023-01-10T20:08:38.441Z,5.77
2023-01-10T20:11:08.519Z,2.80
2023-01-10T20:13:38.133Z,2.80
2023-01-10T20:16:07.084Z,7.57
2023-01-10T20:18:35.323Z,6.23
2023-01-10T20:21:06.499Z,5.10
2023-01-10T20:23:34.767Z,4.23
2023-01-10T20:26:04.052Z,2.90
2023-01-10T20:28:34.125Z,2.83
2023-01-10T20:31:02.612Z,7.17
2023-01-10T20:33:32.971Z,7.57
2023-01-10T20:36:03.674Z,3.03
2023-01-10T20:38:32.462Z,2.10
2023-01-10T20:41:00.977Z,2.50
2023-01-10T20:43:29.607Z,2.90
2023-01-10T20:45:59.171Z,2.10
2023-01-10T20:48:27.328Z,2.20
2023-01-10T20:50:55.520Z,3.30
2023-01-10T20:53:23.763Z,5.07
2023-01-10T20:55:59.686Z,5.43
2023-01-10T20:58:28.468Z,5.10
2023-01-10T21:00:56.620Z,7.87
2023-01-10T21:03:26.143Z,6.93
2023-01-10T21:05:55.330Z,7.10
2023-01-10T21:08:24.145Z,5.50
2023-01-10T21:10:52.571Z,5.00
2023-01-10T21:13:21.074Z,4.93
2023-01-10T21:15:49.322Z,4.30
2023-01-10T21:18:17.658Z,3.60
2023-01-10T21:20:47.871Z,9.87
2023-01-10T21:23:17.636Z,3.13
2023-01-10T21:25:46.056Z,4.30
2023-01-10T21:28:14.273Z,3.23
2023-01-10T21:30:42.511Z,2.00
2023-01-10T21:33:11.108Z,2.00
2023-01-10T21:35:39.538Z,1.77
2023-01-10T21:38:09.094Z,1.63
2023-01-10T21:40:37.257Z,2.73
2023-01-10T21:43:05.443Z,2.07
2023-01-10T21:45:35.745Z,1.80
2023-01-10T21:48:03.943Z,1.87
2023-01-10T21:50:33.695Z,1.60
2023-01-10T21:53:01.949Z,1.53
2023-01-10T21:55:31.459Z,1.70
2023-01-10T21:57:59.641Z,1.57
2023-01-10T22:00:27.887Z,1.53
2023-01-10T22:02:57.442Z,1.50
2023-01-10T22:05:25.914Z,1.47
2023-01-10T22:07:54.122Z,4.53
2023-01-10T22:10:22.416Z,2.10
2023-01-10T22:12:52.021Z,1.30
2023-01-10T22:15:20.683Z,1.70
2023-01-10T22:17:49.228Z,2.80
2023-01-10T22:20:17.557Z,1.33
2023-01-10T22:22:45.802Z,1.20
2023-01-10T22:25:13.998Z,1.40
2023-01-10T22:27:44.892Z,1.43
2023-01-10T22:30:14.970Z,1.70
2023-01-10T22:32:43.143Z,1.40
2023-01-10T22:35:13.643Z,1.30
2023-01-10T22:37:41.964Z,1.53
2023-01-10T22:40:10.938Z,1.60
2023-01-10T22:42:39.122Z,1.40
2023-01-10T22:45:07.911Z,1.40
2023-01-10T22:47:38.366Z,1.17
2023-01-10T22:50:07.012Z,1.20
2023-01-10T22:52:35.199Z,1.10
2023-01-10T22:55:03.373Z,1.30
2023-01-10T22:57:33.183Z,1.40
2023-01-10T23:00:01.516Z,1.50
2023-01-10T23:02:29.915Z,1.23
2023-01-10T23:04:59.482Z,1.10
2023-01-10T23:07:27.816Z,1.70
2023-01-10T23:09:56.049Z,1.13
2023-01-10T23:12:24.232Z,1.40
2023-01-10T23:14:52.477Z,1.30
2023-01-10T23:17:20.660Z,1.70
2023-01-10T23:19:48.833Z,1.40
2023-01-10T23:22:18.337Z,1.30
2023-01-10T23:24:46.531Z,1.50
2023-01-10T23:27:14.708Z,2.47
2023-01-10T23:29:42.862Z,1.40
2023-01-10T23:32:11.325Z,1.10
2023-01-10T23:34:39.581Z,1.40
2023-01-10T23:37:07.725Z,1.30
2023-01-10T23:39:37.268Z,1.30
2023-01-10T23:42:05.556Z,1.20
2023-01-10T23:44:33.977Z,1.53
2023-01-10T23:47:02.157Z,1.70
2023-01-10T23:49:30.366Z,1.63
2023-01-10T23:51:58.577Z,1.30
2023-01-10T23:54:26.767Z,1.77
2023-01-10T23:56:56.334Z,1.90
2023-01-10T23:59:24.801Z,2.33
